createdAt,value
2019-02-26T00:01:30.808Z,4.50
2019-02-26T00:04:09.245Z,4.50
2019-02-26T00:07:00.436Z,4.50
2019-02-26T00:09:43.072Z,4.40
2019-02-26T00:12:28.787Z,4.40
2019-02-26T00:22:07.786Z,4.50
2019-02-26T00:24:49.106Z,4.40
2019-02-26T00:27:32.915Z,4.40
2019-02-26T00:30:19.035Z,4.30
2019-02-26T00:36:27.119Z,4.30
2019-02-26T00:39:14.191Z,4.30
2019-02-26T00:42:06.008Z,4.30
2019-02-26T00:44:51.337Z,4.20
2019-02-26T00:47:41.043Z,4.30
2019-02-26T00:50:23.285Z,4.30
2019-02-26T00:53:17.141Z,4.30
2019-02-26T00:55:59.403Z,4.30
2019-02-26T00:58:42.217Z,4.30
2019-02-26T01:01:28.260Z,4.20
2019-02-26T01:04:11.291Z,4.20
2019-02-26T01:07:03.137Z,4.30
2019-02-26T01:09:47.406Z,4.20
2019-02-26T01:12:30.830Z,4.10
2019-02-26T01:15:34.085Z,3.90
2019-02-26T01:18:14.254Z,3.90
2019-02-26T01:21:06.678Z,3.90
2019-02-26T01:23:43.715Z,3.90
2019-02-26T01:26:27.839Z,4.00
2019-02-26T01:29:16.322Z,4.00
2019-02-26T01:31:58.131Z,4.00
2019-02-26T01:34:53.242Z,3.90
2019-02-26T01:37:32.027Z,3.90
2019-02-26T01:40:16.434Z,4.00
2019-02-26T01:43:03.009Z,3.90
2019-02-26T01:45:43.847Z,3.90
2019-02-26T01:48:26.020Z,3.80
2019-02-26T01:51:07.683Z,3.70
2019-02-26T01:53:53.686Z,3.70
2019-02-26T01:56:39.450Z,3.70
2019-02-26T01:59:21.037Z,3.80
2019-02-26T02:01:59.154Z,3.80
2019-02-26T02:04:41.111Z,3.80
2019-02-26T02:07:19.388Z,3.90
2019-02-26T02:10:03.504Z,3.90
2019-02-26T02:12:43.243Z,3.90
2019-02-26T02:15:25.674Z,3.90
2019-02-26T02:18:07.274Z,3.80
2019-02-26T02:20:46.168Z,3.70
2019-02-26T02:23:30.152Z,3.70
2019-02-26T02:26:13.921Z,3.70
2019-02-26T02:28:55.436Z,3.70
2019-02-26T02:31:40.226Z,3.60
2019-02-26T02:34:29.593Z,3.70
2019-02-26T02:37:07.152Z,3.70
2019-02-26T02:39:46.074Z,3.80
2019-02-26T02:42:31.142Z,3.80
2019-02-26T02:45:17.036Z,3.70
2019-02-26T02:48:00.749Z,3.50
2019-02-26T02:50:51.499Z,3.50
2019-02-26T02:54:04.207Z,3.60
2019-02-26T02:56:45.570Z,3.60
2019-02-26T02:59:25.310Z,3.60
2019-02-26T03:02:06.742Z,3.70
2019-02-26T03:04:43.366Z,3.70
2019-02-26T03:07:23.729Z,3.70
2019-02-26T03:10:06.564Z,3.60
2019-02-26T03:12:48.617Z,3.40
2019-02-26T03:15:24.571Z,3.30
2019-02-26T03:18:12.517Z,3.20
2019-02-26T03:20:53.823Z,3.20
2019-02-26T03:23:37.149Z,3.10
2019-02-26T03:26:17.929Z,3.20
2019-02-26T03:28:57.449Z,3.20
2019-02-26T03:31:41.127Z,3.30
2019-02-26T03:34:21.780Z,3.30
2019-02-26T03:37:03.110Z,3.30
2019-02-26T03:39:47.480Z,3.30
2019-02-26T03:42:33.473Z,3.20
2019-02-26T03:45:15.172Z,3.10
2019-02-26T03:47:58.038Z,3.00
2019-02-26T03:50:38.212Z,3.00
2019-02-26T03:53:18.758Z,3.10
2019-02-26T03:58:57.012Z,3.10
2019-02-26T04:01:41.267Z,3.10
2019-02-26T04:04:20.714Z,3.20
2019-02-26T04:07:07.177Z,3.30
2019-02-26T04:09:44.401Z,3.20
2019-02-26T04:12:30.300Z,3.20
2019-02-26T04:15:30.007Z,3.30
2019-02-26T04:18:14.344Z,3.20
2019-02-26T04:21:03.236Z,3.10
2019-02-26T04:23:42.155Z,3.00
2019-02-26T04:26:39.382Z,2.90
2019-02-26T04:29:29.829Z,2.90
2019-02-26T04:32:45.724Z,2.90
2019-02-26T04:35:47.866Z,2.90
2019-02-26T04:43:21.630Z,2.90
2019-02-26T04:46:25.640Z,2.90
2019-02-26T04:49:10.454Z,3.00
2019-02-26T04:55:32.262Z,3.00
2019-02-26T04:58:15.529Z,2.90
2019-02-26T05:00:56.391Z,2.70
2019-02-26T05:03:37.440Z,2.80
2019-02-26T05:06:15.476Z,2.80
2019-02-26T05:09:02.845Z,2.80
2019-02-26T05:11:42.542Z,2.90
2019-02-26T05:14:23.057Z,2.80
2019-02-26T05:17:01.613Z,2.80
2019-02-26T05:19:45.319Z,2.80
2019-02-26T05:22:25.599Z,2.80
2019-02-26T05:25:13.814Z,2.70
2019-02-26T05:27:53.901Z,2.70
2019-02-26T05:30:37.645Z,2.70
2019-02-26T05:36:50.710Z,2.60
2019-02-26T05:39:32.147Z,2.60
2019-02-26T05:42:11.616Z,2.60
2019-02-26T05:44:54.521Z,2.60
2019-02-26T05:47:33.548Z,2.60
2019-02-26T05:50:16.189Z,2.60
2019-02-26T05:52:57.458Z,2.50
2019-02-26T05:55:28.682Z,2.60
2019-02-26T05:58:10.027Z,2.50
2019-02-26T06:00:48.376Z,2.40
2019-02-26T06:03:32.839Z,2.30
2019-02-26T06:06:12.813Z,2.30
2019-02-26T06:09:07.675Z,2.30
2019-02-26T06:11:54.080Z,2.40
2019-02-26T06:14:41.898Z,2.30
2019-02-26T06:17:29.150Z,2.40
2019-02-26T06:20:07.881Z,2.40
2019-02-26T06:22:55.764Z,2.50
2019-02-26T06:28:40.963Z,2.50
2019-02-26T06:31:22.065Z,2.50
2019-02-26T06:37:43.194Z,2.60
2019-02-26T06:40:32.392Z,2.70
2019-02-26T06:43:12.811Z,2.70
2019-02-26T06:46:00.058Z,2.70
2019-02-26T06:48:40.938Z,2.60
2019-02-26T06:51:21.281Z,2.60
2019-02-26T06:54:01.131Z,2.70
2019-02-26T06:56:48.508Z,2.70
2019-02-26T06:59:39.944Z,2.90
2019-02-26T07:02:17.642Z,2.90
2019-02-26T07:04:59.638Z,3.10
2019-02-26T07:07:38.569Z,3.10
2019-02-26T07:10:24.314Z,3.10
2019-02-26T07:13:05.241Z,3.20
2019-02-26T07:15:50.902Z,3.30
2019-02-26T07:18:28.807Z,3.30
2019-02-26T07:21:09.893Z,3.40
2019-02-26T07:23:54.047Z,3.50
2019-02-26T07:26:41.720Z,3.50
2019-02-26T07:29:21.858Z,3.50
2019-02-26T07:32:01.244Z,3.60
2019-02-26T07:34:45.267Z,3.40
2019-02-26T07:37:25.033Z,3.50
2019-02-26T07:40:05.771Z,3.50
2019-02-26T07:42:49.220Z,3.80
2019-02-26T07:45:37.173Z,3.80
2019-02-26T07:48:23.354Z,3.70
2019-02-26T07:51:14.887Z,3.70
2019-02-26T07:53:54.315Z,3.80
2019-02-26T07:56:33.154Z,3.90
2019-02-26T07:59:27.376Z,4.10
2019-02-26T08:02:01.365Z,4.30
2019-02-26T08:08:24.209Z,4.60
2019-02-26T08:11:04.156Z,4.50
2019-02-26T08:13:56.773Z,4.60
2019-02-26T08:17:01.326Z,4.60
2019-02-26T08:19:46.607Z,4.40
2019-02-26T08:25:29.025Z,4.50
2019-02-26T08:31:46.603Z,4.80
2019-02-26T08:34:41.618Z,4.80
2019-02-26T08:44:12.147Z,4.60
2019-02-26T08:46:49.019Z,4.90
2019-02-26T08:49:35.947Z,5.10
2019-02-26T08:52:27.424Z,5.30
2019-02-26T08:55:10.394Z,5.50
2019-02-26T08:57:53.415Z,5.60
2019-02-26T09:00:54.846Z,5.80
2019-02-26T09:03:40.412Z,5.70
2019-02-26T09:06:26.431Z,5.50
2019-02-26T09:09:06.780Z,5.40
2019-02-26T09:12:15.132Z,5.30
2019-02-26T09:15:12.444Z,5.20
2019-02-26T09:21:56.826Z,5.60
2019-02-26T09:28:20.538Z,5.60
2019-02-26T09:34:39.829Z,5.70
2019-02-26T09:40:57.148Z,5.80
2019-02-26T09:43:48.104Z,5.80
2019-02-26T09:46:41.925Z,5.80
2019-02-26T09:49:26.268Z,6.00
2019-02-26T09:52:13.193Z,6.00
2019-02-26T09:54:52.906Z,6.00
2019-02-26T09:57:43.149Z,6.10
2019-02-26T10:00:29.596Z,6.00
2019-02-26T10:03:15.115Z,5.90
2019-02-26T10:06:01.201Z,6.00
2019-02-26T10:08:40.134Z,6.10
2019-02-26T10:11:29.740Z,6.20
2019-02-26T10:14:30.925Z,6.40
2019-02-26T10:17:22.572Z,6.50
2019-02-26T10:20:09.343Z,6.60
2019-02-26T10:22:49.629Z,6.70
2019-02-26T10:32:13.040Z,7.00
2019-02-26T10:34:52.170Z,7.00
2019-02-26T10:37:47.660Z,7.00
2019-02-26T10:40:35.566Z,7.00
2019-02-26T10:43:14.632Z,7.20
2019-02-26T10:45:59.623Z,7.30
2019-02-26T10:48:52.787Z,7.30
2019-02-26T10:55:17.293Z,7.50
2019-02-26T10:58:21.851Z,7.50
2019-02-26T11:01:22.587Z,7.60
2019-02-26T11:04:06.295Z,7.80
2019-02-26T11:07:11.523Z,7.90
2019-02-26T11:09:50.012Z,7.90
2019-02-26T11:16:04.520Z,8.00
2019-02-26T11:22:20.457Z,8.10
2019-02-26T11:25:08.272Z,8.20
2019-02-26T11:27:55.700Z,8.30
2019-02-26T11:30:41.272Z,8.40
2019-02-26T11:33:23.280Z,8.40
2019-02-26T11:36:02.858Z,8.50
2019-02-26T11:38:46.943Z,8.60
2019-02-26T11:41:28.752Z,8.70
2019-02-26T11:44:12.629Z,8.70
2019-02-26T11:46:53.722Z,8.80
2019-02-26T11:49:34.914Z,8.70
2019-02-26T11:52:21.170Z,8.70
2019-02-26T11:55:23.644Z,8.70
2019-02-26T11:58:10.213Z,8.90
2019-02-26T12:00:53.542Z,8.90
2019-02-26T12:03:43.715Z,8.90
2019-02-26T12:06:24.304Z,9.00
2019-02-26T12:09:08.760Z,9.00
2019-02-26T12:11:51.969Z,9.00
2019-02-26T12:14:28.232Z,9.10
2019-02-26T12:17:10.463Z,9.10
2019-02-26T12:19:51.495Z,9.20
2019-02-26T12:26:19.096Z,9.30
2019-02-26T12:28:57.008Z,9.40
2019-02-26T12:31:38.424Z,9.40
2019-02-26T12:34:17.608Z,9.30
2019-02-26T12:37:02.490Z,9.40
2019-02-26T12:39:37.711Z,9.50
2019-02-26T12:42:18.481Z,9.60
2019-02-26T12:55:12.337Z,10.00
2019-02-26T12:57:59.496Z,10.10
2019-02-26T13:00:42.054Z,10.10
2019-02-26T13:06:51.827Z,10.10
2019-02-26T13:09:33.738Z,10.10
2019-02-26T13:12:19.863Z,10.10
2019-02-26T13:15:04.905Z,10.10
2019-02-26T13:17:44.314Z,10.10
2019-02-26T13:20:26.650Z,10.20
2019-02-26T13:26:22.634Z,10.30
2019-02-26T13:29:09.258Z,10.40
2019-02-26T13:31:59.942Z,10.40
2019-02-26T13:34:39.904Z,10.50
2019-02-26T13:41:29.911Z,10.50
2019-02-26T13:44:32.297Z,10.50
2019-02-26T13:51:00.764Z,10.50
2019-02-26T13:53:44.757Z,10.30
2019-02-26T13:56:22.330Z,10.30
2019-02-26T13:59:03.302Z,10.40
2019-02-26T14:01:45.307Z,10.30
2019-02-26T14:04:24.755Z,10.40
2019-02-26T14:07:02.760Z,10.50
2019-02-26T14:09:48.224Z,10.60
2019-02-26T14:12:28.373Z,10.60
2019-02-26T14:15:08.318Z,10.70
2019-02-26T14:17:51.163Z,10.70
2019-02-26T14:20:41.527Z,10.70
2019-02-26T14:23:25.036Z,10.60
2019-02-26T14:26:05.321Z,10.60
2019-02-26T14:28:42.407Z,10.60
2019-02-26T14:31:23.167Z,10.70
2019-02-26T14:34:12.080Z,10.80
2019-02-26T14:36:51.256Z,10.90
2019-02-26T14:39:34.276Z,10.90
2019-02-26T14:42:23.764Z,10.90
2019-02-26T14:45:13.221Z,11.00
2019-02-26T14:48:05.769Z,11.10
2019-02-26T14:50:50.523Z,11.10
2019-02-26T15:00:32.903Z,11.30
2019-02-26T15:03:22.858Z,11.30
2019-02-26T15:06:03.323Z,11.30
2019-02-26T15:12:25.767Z,11.40
2019-02-26T15:22:29.751Z,11.50
2019-02-26T15:28:16.465Z,11.70
2019-02-26T15:31:13.215Z,11.80
2019-02-26T15:34:10.785Z,11.80
2019-02-26T15:36:54.652Z,11.90
2019-02-26T15:39:38.038Z,11.90
2019-02-26T15:42:21.132Z,12.00
2019-02-26T15:45:09.203Z,11.90
2019-02-26T15:47:49.147Z,11.90
2019-02-26T15:50:29.099Z,11.90
2019-02-26T15:53:23.836Z,11.70
2019-02-26T15:56:00.075Z,11.60
2019-02-26T15:58:47.170Z,11.50
2019-02-26T16:01:48.428Z,11.40
2019-02-26T16:04:30.003Z,11.30
2019-02-26T16:07:10.577Z,11.10
2019-02-26T16:09:57.502Z,11.00
2019-02-26T16:12:41.118Z,11.00
2019-02-26T16:15:31.102Z,10.90
2019-02-26T16:21:58.200Z,10.80
2019-02-26T16:25:14.187Z,10.70
2019-02-26T16:33:57.226Z,10.40
2019-02-26T16:36:54.375Z,10.30
2019-02-26T16:43:23.294Z,10.10
2019-02-26T16:49:53.233Z,9.90
2019-02-26T16:56:26.244Z,9.80
2019-02-26T16:59:14.280Z,9.60
2019-02-26T17:01:57.007Z,9.60
2019-02-26T17:04:42.083Z,9.50
2019-02-26T17:07:27.644Z,9.40
2019-02-26T17:13:59.668Z,9.40
2019-02-26T17:16:52.395Z,9.30
2019-02-26T17:19:36.298Z,9.30
2019-02-26T17:22:21.902Z,9.30
2019-02-26T17:25:10.044Z,9.30
2019-02-26T17:27:53.481Z,9.20
2019-02-26T17:30:39.595Z,9.10
2019-02-26T17:33:26.089Z,8.90
2019-02-26T17:36:05.199Z,8.80
2019-02-26T17:38:51.472Z,8.80
2019-02-26T17:41:31.946Z,8.80
2019-02-26T17:47:46.025Z,8.90
2019-02-26T17:50:42.814Z,8.80
2019-02-26T17:53:28.332Z,8.70
2019-02-26T17:56:11.065Z,8.60
2019-02-26T18:05:18.499Z,8.50
2019-02-26T18:08:05.200Z,8.40
2019-02-26T18:10:48.247Z,8.30
2019-02-26T18:13:24.498Z,8.30
2019-02-26T18:16:09.206Z,8.20
2019-02-26T18:19:12.131Z,8.20
2019-02-26T18:25:43.618Z,8.10
2019-02-26T18:31:42.168Z,8.00
2019-02-26T18:34:26.255Z,8.00
2019-02-26T18:37:20.224Z,7.90
2019-02-26T18:43:47.411Z,7.80
2019-02-26T18:50:15.296Z,7.80
2019-02-26T18:56:31.309Z,7.80
2019-02-26T19:02:59.202Z,7.70
2019-02-26T19:05:48.163Z,7.50
2019-02-26T19:08:56.178Z,7.60
2019-02-26T19:11:50.273Z,7.60
2019-02-26T19:14:44.122Z,7.50
2019-02-26T19:17:30.675Z,7.40
2019-02-26T19:23:43.980Z,7.20
2019-02-26T19:26:27.844Z,7.20
2019-02-26T19:29:19.230Z,7.30
2019-02-26T19:32:04.101Z,7.30
2019-02-26T19:34:44.259Z,7.20
2019-02-26T19:37:26.660Z,7.20
2019-02-26T19:40:18.075Z,7.20
2019-02-26T19:43:00.868Z,7.20
2019-02-26T19:46:02.248Z,7.10
2019-02-26T19:59:05.498Z,7.00
2019-02-26T20:01:50.974Z,7.00
2019-02-26T20:04:39.699Z,7.00
2019-02-26T20:07:21.331Z,6.90
2019-02-26T20:10:12.874Z,6.90
2019-02-26T20:16:27.560Z,6.70
2019-02-26T20:25:32.708Z,6.70
2019-02-26T20:28:16.564Z,6.60
2019-02-26T20:34:31.224Z,6.60
2019-02-26T20:37:12.712Z,6.50
2019-02-26T20:39:54.718Z,6.40
2019-02-26T20:42:35.078Z,6.40
2019-02-26T20:45:23.847Z,6.50
2019-02-26T20:48:12.453Z,6.40
2019-02-26T20:50:53.718Z,6.30
2019-02-26T21:00:14.907Z,6.20
2019-02-26T21:03:13.608Z,6.20
2019-02-26T21:09:22.927Z,6.30
2019-02-26T21:12:10.889Z,6.30
2019-02-26T21:14:56.067Z,6.20
2019-02-26T21:17:37.853Z,6.10
2019-02-26T21:23:47.312Z,6.20
2019-02-26T21:30:07.417Z,5.90
2019-02-26T21:32:52.488Z,5.90
2019-02-26T21:35:34.484Z,5.80
2019-02-26T21:38:17.301Z,5.70
2019-02-26T21:44:56.066Z,5.80
2019-02-26T21:47:40.501Z,5.80
2019-02-26T21:57:33.822Z,5.90
2019-02-26T22:03:52.478Z,5.70
2019-02-26T22:06:35.505Z,5.70
2019-02-26T22:09:13.405Z,5.60
2019-02-26T22:11:54.403Z,5.50
2019-02-26T22:14:38.749Z,5.50
2019-02-26T22:17:25.045Z,5.60
2019-02-26T22:20:21.577Z,5.50
2019-02-26T22:22:53.627Z,5.50
2019-02-26T22:25:43.817Z,5.50
2019-02-26T22:28:29.504Z,5.60
2019-02-26T22:31:11.493Z,5.60
2019-02-26T22:33:53.285Z,5.50
2019-02-26T22:36:33.315Z,5.40
2019-02-26T22:39:12.363Z,5.40
2019-02-26T22:41:56.408Z,5.40
2019-02-26T22:44:44.147Z,5.40
2019-02-26T22:47:43.749Z,5.50
2019-02-26T22:50:27.209Z,5.50
2019-02-26T22:53:06.513Z,5.50
2019-02-26T22:55:51.910Z,5.30
2019-02-26T22:58:36.918Z,5.30
2019-02-26T23:04:46.523Z,5.20
2019-02-26T23:07:27.492Z,5.20
2019-02-26T23:10:11.538Z,5.20
2019-02-26T23:12:53.552Z,5.20
2019-02-26T23:15:30.912Z,5.20
2019-02-26T23:18:14.456Z,5.20
2019-02-26T23:20:58.506Z,5.10
2019-02-26T23:23:48.500Z,5.00
2019-02-26T23:26:50.351Z,4.90
2019-02-26T23:29:36.438Z,4.90
2019-02-26T23:35:55.593Z,5.00
2019-02-26T23:42:26.038Z,4.90
2019-02-26T23:45:07.459Z,4.90
2019-02-26T23:48:00.536Z,4.80
